sensor_id;sensor_type;location;lat;lon;timestamp;P1;durP1;ratioP1;P2;durP2;ratioP2
68680;SDS011;55836;49.858;6.756;2023-08-12T00:00:55;8.93;;;6.80;;
68680;SDS011;55836;49.858;6.756;2023-08-12T00:03:31;7.33;;;6.63;;
68680;SDS011;55836;49.858;6.756;2023-08-12T00:05:57;7.87;;;6.27;;
68680;SDS011;55836;49.858;6.756;2023-08-12T00:08:31;9.90;;;6.77;;
68680;SDS011;55836;49.858;6.756;2023-08-12T00:10:57;10.83;;;6.47;;
68680;SDS011;55836;49.858;6.756;2023-08-12T00:13:29;8.50;;;6.93;;
68680;SDS011;55836;49.858;6.756;2023-08-12T00:15:55;10.37;;;7.20;;
68680;SDS011;55836;49.858;6.756;2023-08-12T00:18:37;7.40;;;6.60;;
68680;SDS011;55836;49.858;6.756;2023-08-12T00:21:06;9.47;;;7.33;;
68680;SDS011;55836;49.858;6.756;2023-08-12T00:23:39;13.07;;;7.37;;
68680;SDS011;55836;49.858;6.756;2023-08-12T00:26:11;10.27;;;7.67;;
68680;SDS011;55836;49.858;6.756;2023-08-12T00:28:43;14.03;;;7.57;;
68680;SDS011;55836;49.858;6.756;2023-08-12T00:31:09;9.83;;;8.07;;
68680;SDS011;55836;49.858;6.756;2023-08-12T00:33:35;8.27;;;7.10;;
68680;SDS011;55836;49.858;6.756;2023-08-12T00:36:01;8.33;;;7.53;;
68680;SDS011;55836;49.858;6.756;2023-08-12T00:38:34;9.47;;;7.40;;
68680;SDS011;55836;49.858;6.756;2023-08-12T00:41:06;8.20;;;7.30;;
68680;SDS011;55836;49.858;6.756;2023-08-12T00:43:32;10.40;;;8.23;;
68680;SDS011;55836;49.858;6.756;2023-08-12T00:46:04;8.27;;;7.47;;
68680;SDS011;55836;49.858;6.756;2023-08-12T00:48:36;10.13;;;7.73;;
68680;SDS011;55836;49.858;6.756;2023-08-12T00:51:05;11.13;;;7.47;;
68680;SDS011;55836;49.858;6.756;2023-08-12T00:53:31;10.10;;;7.40;;
68680;SDS011;55836;49.858;6.756;2023-08-12T00:56:09;9.30;;;7.73;;
68680;SDS011;55836;49.858;6.756;2023-08-12T00:58:35;10.67;;;7.43;;
68680;SDS011;55836;49.858;6.756;2023-08-12T01:01:07;9.90;;;6.80;;
68680;SDS011;55836;49.858;6.756;2023-08-12T01:03:43;8.73;;;6.57;;
68680;SDS011;55836;49.858;6.756;2023-08-12T01:06:09;9.77;;;6.87;;
68680;SDS011;55836;49.858;6.756;2023-08-12T01:08:47;9.63;;;7.70;;
68680;SDS011;55836;49.858;6.756;2023-08-12T01:14:06;8.53;;;7.13;;
68680;SDS011;55836;49.858;6.756;2023-08-12T01:16:42;10.30;;;7.07;;
68680;SDS011;55836;49.858;6.756;2023-08-12T01:21:53;9.10;;;6.13;;
68680;SDS011;55836;49.858;6.756;2023-08-12T01:24:21;7.77;;;5.70;;
68680;SDS011;55836;49.858;6.756;2023-08-12T01:26:54;10.67;;;6.13;;
68680;SDS011;55836;49.858;6.756;2023-08-12T01:29:26;7.63;;;6.23;;
68680;SDS011;55836;49.858;6.756;2023-08-12T01:32:34;8.23;;;5.77;;
68680;SDS011;55836;49.858;6.756;2023-08-12T01:35:14;8.77;;;6.07;;
68680;SDS011;55836;49.858;6.756;2023-08-12T01:38:04;6.97;;;5.93;;
68680;SDS011;55836;49.858;6.756;2023-08-12T01:40:31;10.47;;;6.47;;
68680;SDS011;55836;49.858;6.756;2023-08-12T01:43:10;6.53;;;5.83;;
68680;SDS011;55836;49.858;6.756;2023-08-12T01:45:49;8.37;;;6.03;;
68680;SDS011;55836;49.858;6.756;2023-08-12T01:48:15;6.10;;;5.50;;
68680;SDS011;55836;49.858;6.756;2023-08-12T01:50:41;7.50;;;6.37;;
68680;SDS011;55836;49.858;6.756;2023-08-12T01:53:12;7.07;;;6.00;;
68680;SDS011;55836;49.858;6.756;2023-08-12T01:55:44;8.80;;;6.20;;
68680;SDS011;55836;49.858;6.756;2023-08-12T01:58:17;7.07;;;6.20;;
68680;SDS011;55836;49.858;6.756;2023-08-12T02:00:43;7.73;;;6.87;;
68680;SDS011;55836;49.858;6.756;2023-08-12T02:03:15;7.07;;;6.33;;
68680;SDS011;55836;49.858;6.756;2023-08-12T02:05:41;9.23;;;6.23;;
68680;SDS011;55836;49.858;6.756;2023-08-12T02:08:08;8.73;;;7.00;;
68680;SDS011;55836;49.858;6.756;2023-08-12T02:10:34;8.50;;;5.97;;
68680;SDS011;55836;49.858;6.756;2023-08-12T02:13:06;7.27;;;6.10;;
68680;SDS011;55836;49.858;6.756;2023-08-12T02:15:32;7.93;;;6.33;;
68680;SDS011;55836;49.858;6.756;2023-08-12T02:18:04;7.27;;;6.40;;
68680;SDS011;55836;49.858;6.756;2023-08-12T02:20:30;8.13;;;6.37;;
68680;SDS011;55836;49.858;6.756;2023-08-12T02:22:59;9.00;;;6.37;;
68680;SDS011;55836;49.858;6.756;2023-08-12T02:25:34;8.30;;;6.20;;
68680;SDS011;55836;49.858;6.756;2023-08-12T02:28:07;6.27;;;5.63;;
68680;SDS011;55836;49.858;6.756;2023-08-12T02:30:33;7.63;;;6.50;;
68680;SDS011;55836;49.858;6.756;2023-08-12T02:32:59;7.50;;;5.90;;
68680;SDS011;55836;49.858;6.756;2023-08-12T02:35:32;7.10;;;6.40;;
68680;SDS011;55836;49.858;6.756;2023-08-12T02:40:52;6.63;;;5.90;;
68680;SDS011;55836;49.858;6.756;2023-08-12T02:43:24;9.93;;;6.63;;
68680;SDS011;55836;49.858;6.756;2023-08-12T02:45:50;7.73;;;6.70;;
68680;SDS011;55836;49.858;6.756;2023-08-12T02:48:22;7.83;;;6.87;;
68680;SDS011;55836;49.858;6.756;2023-08-12T02:50:48;10.00;;;6.63;;
68680;SDS011;55836;49.858;6.756;2023-08-12T02:53:15;8.57;;;6.73;;
68680;SDS011;55836;49.858;6.756;2023-08-12T02:55:51;7.37;;;5.97;;
68680;SDS011;55836;49.858;6.756;2023-08-12T02:58:23;7.43;;;6.37;;
68680;SDS011;55836;49.858;6.756;2023-08-12T03:00:55;6.60;;;6.00;;
68680;SDS011;55836;49.858;6.756;2023-08-12T03:03:22;8.27;;;6.10;;
68680;SDS011;55836;49.858;6.756;2023-08-12T03:05:48;8.93;;;6.20;;
68680;SDS011;55836;49.858;6.756;2023-08-12T03:08:14;7.20;;;6.07;;
68680;SDS011;55836;49.858;6.756;2023-08-12T03:10:40;8.83;;;6.43;;
68680;SDS011;55836;49.858;6.756;2023-08-12T03:13:13;9.13;;;6.80;;
68680;SDS011;55836;49.858;6.756;2023-08-12T03:15:45;10.00;;;5.97;;
68680;SDS011;55836;49.858;6.756;2023-08-12T03:18:11;6.97;;;6.13;;
68680;SDS011;55836;49.858;6.756;2023-08-12T03:20:37;7.70;;;5.93;;
68680;SDS011;55836;49.858;6.756;2023-08-12T03:23:03;8.37;;;6.23;;
68680;SDS011;55836;49.858;6.756;2023-08-12T03:25:29;10.17;;;6.17;;
68680;SDS011;55836;49.858;6.756;2023-08-12T03:27:55;6.93;;;6.33;;
68680;SDS011;55836;49.858;6.756;2023-08-12T03:30:21;6.90;;;6.03;;
68680;SDS011;55836;49.858;6.756;2023-08-12T03:32:53;6.63;;;6.07;;
68680;SDS011;55836;49.858;6.756;2023-08-12T03:35:29;7.53;;;6.83;;
68680;SDS011;55836;49.858;6.756;2023-08-12T03:37:55;9.00;;;6.00;;
68680;SDS011;55836;49.858;6.756;2023-08-12T03:43:20;7.87;;;7.13;;
68680;SDS011;55836;49.858;6.756;2023-08-12T03:46:19;14.57;;;6.60;;
68680;SDS011;55836;49.858;6.756;2023-08-12T03:48:41;5.97;;;5.47;;
68680;SDS011;55836;49.858;6.756;2023-08-12T03:51:07;6.93;;;5.80;;
68680;SDS011;55836;49.858;6.756;2023-08-12T03:53:42;6.57;;;5.97;;
68680;SDS011;55836;49.858;6.756;2023-08-12T03:56:14;10.10;;;6.43;;
68680;SDS011;55836;49.858;6.756;2023-08-12T03:58:44;7.97;;;6.53;;
68680;SDS011;55836;49.858;6.756;2023-08-12T04:01:10;7.13;;;5.50;;
68680;SDS011;55836;49.858;6.756;2023-08-12T04:06:30;7.17;;;5.33;;
68680;SDS011;55836;49.858;6.756;2023-08-12T04:09:03;6.67;;;5.67;;
68680;SDS011;55836;49.858;6.756;2023-08-12T04:11:30;6.57;;;5.73;;
68680;SDS011;55836;49.858;6.756;2023-08-12T04:14:03;7.60;;;5.90;;
68680;SDS011;55836;49.858;6.756;2023-08-12T04:16:35;10.13;;;6.80;;
68680;SDS011;55836;49.858;6.756;2023-08-12T04:19:01;7.47;;;6.77;;
68680;SDS011;55836;49.858;6.756;2023-08-12T04:21:34;8.43;;;6.33;;
68680;SDS011;55836;49.858;6.756;2023-08-12T04:24:06;6.73;;;5.80;;
68680;SDS011;55836;49.858;6.756;2023-08-12T04:26:38;7.07;;;5.93;;
68680;SDS011;55836;49.858;6.756;2023-08-12T04:29:11;6.90;;;5.83;;
68680;SDS011;55836;49.858;6.756;2023-08-12T04:31:43;8.07;;;5.47;;
68680;SDS011;55836;49.858;6.756;2023-08-12T04:34:15;7.30;;;6.60;;
68680;SDS011;55836;49.858;6.756;2023-08-12T04:36:47;8.40;;;7.33;;
68680;SDS011;55836;49.858;6.756;2023-08-12T04:39:19;6.97;;;6.30;;
68680;SDS011;55836;49.858;6.756;2023-08-12T04:41:50;7.17;;;5.83;;
68680;SDS011;55836;49.858;6.756;2023-08-12T04:44:28;8.17;;;6.40;;
68680;SDS011;55836;49.858;6.756;2023-08-12T04:46:54;9.83;;;8.60;;
68680;SDS011;55836;49.858;6.756;2023-08-12T04:49:26;8.10;;;6.50;;
68680;SDS011;55836;49.858;6.756;2023-08-12T04:51:52;11.13;;;6.70;;
68680;SDS011;55836;49.858;6.756;2023-08-12T04:54:18;8.87;;;7.30;;
68680;SDS011;55836;49.858;6.756;2023-08-12T04:56:50;6.67;;;5.97;;
68680;SDS011;55836;49.858;6.756;2023-08-12T04:59:16;7.47;;;6.63;;
68680;SDS011;55836;49.858;6.756;2023-08-12T05:01:43;7.27;;;6.63;;
68680;SDS011;55836;49.858;6.756;2023-08-12T05:04:15;9.53;;;6.37;;
68680;SDS011;55836;49.858;6.756;2023-08-12T05:06:47;6.83;;;5.53;;
68680;SDS011;55836;49.858;6.756;2023-08-12T05:09:13;7.27;;;6.27;;
68680;SDS011;55836;49.858;6.756;2023-08-12T05:11:40;6.53;;;5.93;;
68680;SDS011;55836;49.858;6.756;2023-08-12T05:14:10;7.17;;;5.80;;
68680;SDS011;55836;49.858;6.756;2023-08-12T05:16:42;8.30;;;5.93;;
68680;SDS011;55836;49.858;6.756;2023-08-12T05:19:14;8.33;;;6.20;;
68680;SDS011;55836;49.858;6.756;2023-08-12T05:21:40;8.00;;;6.83;;
68680;SDS011;55836;49.858;6.756;2023-08-12T05:24:12;10.23;;;7.67;;
68680;SDS011;55836;49.858;6.756;2023-08-12T05:26:44;8.00;;;7.20;;
68680;SDS011;55836;49.858;6.756;2023-08-12T05:29:11;8.27;;;6.93;;
68680;SDS011;55836;49.858;6.756;2023-08-12T05:31:49;8.30;;;7.50;;
68680;SDS011;55836;49.858;6.756;2023-08-12T05:34:21;10.13;;;8.60;;
68680;SDS011;55836;49.858;6.756;2023-08-12T05:36:47;11.93;;;9.30;;
68680;SDS011;55836;49.858;6.756;2023-08-12T05:39:19;9.93;;;7.10;;
68680;SDS011;55836;49.858;6.756;2023-08-12T05:41:45;13.47;;;11.23;;
68680;SDS011;55836;49.858;6.756;2023-08-12T05:44:18;15.07;;;12.53;;
68680;SDS011;55836;49.858;6.756;2023-08-12T05:46:44;15.17;;;12.20;;
68680;SDS011;55836;49.858;6.756;2023-08-12T05:49:10;16.90;;;12.67;;
68680;SDS011;55836;49.858;6.756;2023-08-12T05:51:36;15.97;;;12.40;;
68680;SDS011;55836;49.858;6.756;2023-08-12T05:54:03;22.00;;;12.97;;
68680;SDS011;55836;49.858;6.756;2023-08-12T05:56:32;17.83;;;12.93;;
68680;SDS011;55836;49.858;6.756;2023-08-12T05:59:01;16.00;;;13.03;;
68680;SDS011;55836;49.858;6.756;2023-08-12T06:01:27;15.70;;;12.03;;
68680;SDS011;55836;49.858;6.756;2023-08-12T06:03:59;13.33;;;11.93;;
68680;SDS011;55836;49.858;6.756;2023-08-12T06:06:25;15.43;;;13.67;;
68680;SDS011;55836;49.858;6.756;2023-08-12T06:08:51;18.53;;;15.47;;
68680;SDS011;55836;49.858;6.756;2023-08-12T06:11:23;16.80;;;15.00;;
68680;SDS011;55836;49.858;6.756;2023-08-12T06:13:52;17.97;;;15.40;;
68680;SDS011;55836;49.858;6.756;2023-08-12T06:16:24;17.27;;;15.43;;
68680;SDS011;55836;49.858;6.756;2023-08-12T06:18:56;19.10;;;17.10;;
68680;SDS011;55836;49.858;6.756;2023-08-12T06:21:22;19.17;;;14.27;;
68680;SDS011;55836;49.858;6.756;2023-08-12T06:23:51;15.00;;;12.60;;
68680;SDS011;55836;49.858;6.756;2023-08-12T06:26:23;16.90;;;15.00;;
68680;SDS011;55836;49.858;6.756;2023-08-12T06:28:49;19.73;;;15.60;;
68680;SDS011;55836;49.858;6.756;2023-08-12T06:31:15;19.87;;;15.17;;
68680;SDS011;55836;49.858;6.756;2023-08-12T06:33:50;19.03;;;17.03;;
68680;SDS011;55836;49.858;6.756;2023-08-12T06:36:22;17.10;;;14.47;;
68680;SDS011;55836;49.858;6.756;2023-08-12T06:38:48;20.27;;;16.77;;
68680;SDS011;55836;49.858;6.756;2023-08-12T06:41:21;20.20;;;18.03;;
68680;SDS011;55836;49.858;6.756;2023-08-12T06:43:47;21.13;;;18.87;;
68680;SDS011;55836;49.858;6.756;2023-08-12T06:46:13;21.17;;;18.73;;
68680;SDS011;55836;49.858;6.756;2023-08-12T06:48:45;25.43;;;22.67;;
68680;SDS011;55836;49.858;6.756;2023-08-12T06:51:11;20.87;;;16.90;;
68680;SDS011;55836;49.858;6.756;2023-08-12T06:53:43;21.53;;;17.07;;
68680;SDS011;55836;49.858;6.756;2023-08-12T06:56:18;19.10;;;15.93;;
68680;SDS011;55836;49.858;6.756;2023-08-12T06:58:50;21.87;;;19.67;;
68680;SDS011;55836;49.858;6.756;2023-08-12T07:01:16;19.67;;;17.57;;
68680;SDS011;55836;49.858;6.756;2023-08-12T07:03:45;23.03;;;19.37;;
68680;SDS011;55836;49.858;6.756;2023-08-12T07:06:11;21.27;;;19.27;;
68680;SDS011;55836;49.858;6.756;2023-08-12T07:08:43;16.70;;;14.97;;
68680;SDS011;55836;49.858;6.756;2023-08-12T07:11:15;17.03;;;15.23;;
68680;SDS011;55836;49.858;6.756;2023-08-12T07:16:49;12.20;;;10.97;;
68680;SDS011;55836;49.858;6.756;2023-08-12T07:19:21;17.43;;;12.33;;
68680;SDS011;55836;49.858;6.756;2023-08-12T07:21:51;17.13;;;13.13;;
68680;SDS011;55836;49.858;6.756;2023-08-12T07:24:26;15.23;;;12.93;;
68680;SDS011;55836;49.858;6.756;2023-08-12T07:27:01;14.40;;;11.80;;
68680;SDS011;55836;49.858;6.756;2023-08-12T07:29:27;14.37;;;12.63;;
68680;SDS011;55836;49.858;6.756;2023-08-12T07:31:56;13.70;;;11.63;;
68680;SDS011;55836;49.858;6.756;2023-08-12T07:34:30;15.93;;;11.17;;
68680;SDS011;55836;49.858;6.756;2023-08-12T07:36:56;12.30;;;11.10;;
68680;SDS011;55836;49.858;6.756;2023-08-12T07:39:25;12.40;;;11.20;;
68680;SDS011;55836;49.858;6.756;2023-08-12T07:41:51;12.13;;;10.53;;
68680;SDS011;55836;49.858;6.756;2023-08-12T07:44:17;13.33;;;9.80;;
68680;SDS011;55836;49.858;6.756;2023-08-12T07:46:49;10.30;;;8.93;;
68680;SDS011;55836;49.858;6.756;2023-08-12T07:49:22;10.57;;;9.47;;
68680;SDS011;55836;49.858;6.756;2023-08-12T07:51:54;9.77;;;8.87;;
68680;SDS011;55836;49.858;6.756;2023-08-12T07:54:26;12.17;;;8.77;;
68680;SDS011;55836;49.858;6.756;2023-08-12T07:56:58;8.63;;;7.83;;
68680;SDS011;55836;49.858;6.756;2023-08-12T07:59:24;8.77;;;7.80;;
68680;SDS011;55836;49.858;6.756;2023-08-12T08:01:51;9.87;;;7.50;;
68680;SDS011;55836;49.858;6.756;2023-08-12T08:04:23;8.83;;;7.93;;
68680;SDS011;55836;49.858;6.756;2023-08-12T08:06:49;8.47;;;6.87;;
68680;SDS011;55836;49.858;6.756;2023-08-12T08:09:15;7.50;;;6.80;;
68680;SDS011;55836;49.858;6.756;2023-08-12T08:11:41;9.90;;;7.50;;
68680;SDS011;55836;49.858;6.756;2023-08-12T08:14:22;8.20;;;7.30;;
68680;SDS011;55836;49.858;6.756;2023-08-12T08:17:04;7.73;;;7.03;;
68680;SDS011;55836;49.858;6.756;2023-08-12T08:19:30;7.00;;;6.37;;
68680;SDS011;55836;49.858;6.756;2023-08-12T08:22:02;7.57;;;6.73;;
68680;SDS011;55836;49.858;6.756;2023-08-12T08:24:28;7.00;;;6.30;;
68680;SDS011;55836;49.858;6.756;2023-08-12T08:26:54;6.63;;;6.00;;
68680;SDS011;55836;49.858;6.756;2023-08-12T08:29:20;8.20;;;6.20;;
68680;SDS011;55836;49.858;6.756;2023-08-12T08:31:52;9.30;;;6.37;;
68680;SDS011;55836;49.858;6.756;2023-08-12T08:34:25;8.10;;;6.50;;
68680;SDS011;55836;49.858;6.756;2023-08-12T08:37:00;10.70;;;6.47;;
68680;SDS011;55836;49.858;6.756;2023-08-12T08:39:29;8.23;;;6.17;;
68680;SDS011;55836;49.858;6.756;2023-08-12T08:41:55;6.80;;;6.17;;
68680;SDS011;55836;49.858;6.756;2023-08-12T08:44:30;6.67;;;5.97;;
68680;SDS011;55836;49.858;6.756;2023-08-12T08:47:04;7.30;;;6.60;;
68680;SDS011;55836;49.858;6.756;2023-08-12T08:49:32;7.37;;;5.83;;
68680;SDS011;55836;49.858;6.756;2023-08-12T08:52:00;6.20;;;5.60;;
68680;SDS011;55836;49.858;6.756;2023-08-12T08:54:47;6.90;;;6.20;;
68680;SDS011;55836;49.858;6.756;2023-08-12T08:57:22;5.97;;;5.47;;
68680;SDS011;55836;49.858;6.756;2023-08-12T08:59:48;7.80;;;5.20;;
68680;SDS011;55836;49.858;6.756;2023-08-12T09:02:20;9.17;;;5.23;;
68680;SDS011;55836;49.858;6.756;2023-08-12T09:04:46;5.80;;;5.17;;
68680;SDS011;55836;49.858;6.756;2023-08-12T09:07:13;5.63;;;4.90;;
68680;SDS011;55836;49.858;6.756;2023-08-12T09:09:46;5.40;;;4.90;;
68680;SDS011;55836;49.858;6.756;2023-08-12T09:15:06;6.33;;;4.70;;
68680;SDS011;55836;49.858;6.756;2023-08-12T09:17:51;6.40;;;4.50;;
68680;SDS011;55836;49.858;6.756;2023-08-12T09:20:17;5.77;;;4.70;;
68680;SDS011;55836;49.858;6.756;2023-08-12T09:22:55;5.63;;;5.13;;
68680;SDS011;55836;49.858;6.756;2023-08-12T09:25:27;8.50;;;5.00;;
68680;SDS011;55836;49.858;6.756;2023-08-12T09:27:55;5.47;;;4.97;;
68680;SDS011;55836;49.858;6.756;2023-08-12T09:30:21;5.43;;;4.93;;
68680;SDS011;55836;49.858;6.756;2023-08-12T09:35:30;6.10;;;4.97;;
68680;SDS011;55836;49.858;6.756;2023-08-12T09:38:09;6.07;;;4.80;;
68680;SDS011;55836;49.858;6.756;2023-08-12T09:40:42;6.93;;;5.17;;
68680;SDS011;55836;49.858;6.756;2023-08-12T09:43:14;6.57;;;4.97;;
68680;SDS011;55836;49.858;6.756;2023-08-12T09:45:47;6.93;;;4.80;;
68680;SDS011;55836;49.858;6.756;2023-08-12T09:48:13;9.73;;;4.50;;
68680;SDS011;55836;49.858;6.756;2023-08-12T09:50:48;5.43;;;4.87;;
68680;SDS011;55836;49.858;6.756;2023-08-12T09:53:15;5.40;;;4.60;;
68680;SDS011;55836;49.858;6.756;2023-08-12T09:55:50;5.77;;;4.87;;
68680;SDS011;55836;49.858;6.756;2023-08-12T09:58:24;7.27;;;4.93;;
68680;SDS011;55836;49.858;6.756;2023-08-12T10:00:51;5.57;;;5.07;;
68680;SDS011;55836;49.858;6.756;2023-08-12T10:03:17;6.13;;;4.83;;
68680;SDS011;55836;49.858;6.756;2023-08-12T10:05:56;5.10;;;4.70;;
68680;SDS011;55836;49.858;6.756;2023-08-12T10:08:28;9.37;;;5.20;;
68680;SDS011;55836;49.858;6.756;2023-08-12T10:11:00;8.23;;;4.97;;
68680;SDS011;55836;49.858;6.756;2023-08-12T10:13:28;6.57;;;4.67;;
68680;SDS011;55836;49.858;6.756;2023-08-12T10:15:59;5.53;;;4.73;;
68680;SDS011;55836;49.858;6.756;2023-08-12T10:18:31;4.67;;;4.27;;
68680;SDS011;55836;49.858;6.756;2023-08-12T10:21:09;5.47;;;4.73;;
68680;SDS011;55836;49.858;6.756;2023-08-12T10:23:35;7.57;;;4.53;;
68680;SDS011;55836;49.858;6.756;2023-08-12T10:26:07;4.53;;;4.13;;
68680;SDS011;55836;49.858;6.756;2023-08-12T10:28:40;6.53;;;4.43;;
68680;SDS011;55836;49.858;6.756;2023-08-12T10:31:18;5.57;;;4.77;;
68680;SDS011;55836;49.858;6.756;2023-08-12T10:33:45;6.37;;;4.57;;
68680;SDS011;55836;49.858;6.756;2023-08-12T10:36:20;8.13;;;5.57;;
68680;SDS011;55836;49.858;6.756;2023-08-12T10:38:55;8.03;;;4.83;;
68680;SDS011;55836;49.858;6.756;2023-08-12T10:41:23;7.37;;;4.83;;
68680;SDS011;55836;49.858;6.756;2023-08-12T10:43:53;5.70;;;5.20;;
68680;SDS011;55836;49.858;6.756;2023-08-12T10:46:30;6.43;;;5.30;;
68680;SDS011;55836;49.858;6.756;2023-08-12T10:49:19;7.83;;;5.10;;
68680;SDS011;55836;49.858;6.756;2023-08-12T10:51:50;7.77;;;5.23;;
68680;SDS011;55836;49.858;6.756;2023-08-12T10:54:27;6.23;;;5.60;;
68680;SDS011;55836;49.858;6.756;2023-08-12T10:59:50;8.93;;;6.20;;
68680;SDS011;55836;49.858;6.756;2023-08-12T11:02:17;5.23;;;4.73;;
68680;SDS011;55836;49.858;6.756;2023-08-12T11:10:27;6.57;;;5.60;;
68680;SDS011;55836;49.858;6.756;2023-08-12T11:12:56;6.30;;;4.90;;
68680;SDS011;55836;49.858;6.756;2023-08-12T11:18:18;5.60;;;4.57;;
68680;SDS011;55836;49.858;6.756;2023-08-12T11:20:45;4.80;;;4.30;;
68680;SDS011;55836;49.858;6.756;2023-08-12T11:23:12;5.13;;;3.60;;
68680;SDS011;55836;49.858;6.756;2023-08-12T11:25:39;5.80;;;4.20;;
68680;SDS011;55836;49.858;6.756;2023-08-12T11:28:21;5.47;;;3.30;;
68680;SDS011;55836;49.858;6.756;2023-08-12T11:30:53;4.80;;;3.53;;
68680;SDS011;55836;49.858;6.756;2023-08-12T11:33:29;3.37;;;2.77;;
68680;SDS011;55836;49.858;6.756;2023-08-12T11:36:10;3.83;;;3.00;;
68680;SDS011;55836;49.858;6.756;2023-08-12T11:38:37;4.70;;;2.67;;
68680;SDS011;55836;49.858;6.756;2023-08-12T11:41:03;3.87;;;2.80;;
68680;SDS011;55836;49.858;6.756;2023-08-12T11:43:35;4.53;;;2.60;;
68680;SDS011;55836;49.858;6.756;2023-08-12T11:46:07;2.67;;;2.30;;
68680;SDS011;55836;49.858;6.756;2023-08-12T11:48:39;3.90;;;2.50;;
68680;SDS011;55836;49.858;6.756;2023-08-12T11:51:11;6.83;;;2.70;;
68680;SDS011;55836;49.858;6.756;2023-08-12T11:53:37;2.97;;;2.50;;
68680;SDS011;55836;49.858;6.756;2023-08-12T11:56:04;3.20;;;2.53;;
68680;SDS011;55836;49.858;6.756;2023-08-12T11:58:35;2.30;;;2.10;;
68680;SDS011;55836;49.858;6.756;2023-08-12T12:01:07;3.30;;;2.43;;
68680;SDS011;55836;49.858;6.756;2023-08-12T12:03:39;4.07;;;2.30;;
68680;SDS011;55836;49.858;6.756;2023-08-12T12:06:17;2.97;;;2.17;;
68680;SDS011;55836;49.858;6.756;2023-08-12T12:08:49;3.63;;;2.80;;
68680;SDS011;55836;49.858;6.756;2023-08-12T12:11:15;4.93;;;2.37;;
68680;SDS011;55836;49.858;6.756;2023-08-12T12:13:48;2.67;;;2.20;;
68680;SDS011;55836;49.858;6.756;2023-08-12T12:16:20;3.67;;;2.00;;
68680;SDS011;55836;49.858;6.756;2023-08-12T12:18:46;4.17;;;2.10;;
68680;SDS011;55836;49.858;6.756;2023-08-12T12:21:20;4.50;;;1.97;;
68680;SDS011;55836;49.858;6.756;2023-08-12T12:24:01;4.07;;;2.27;;
68680;SDS011;55836;49.858;6.756;2023-08-12T12:26:33;3.27;;;2.17;;
68680;SDS011;55836;49.858;6.756;2023-08-12T12:29:06;3.83;;;2.17;;
68680;SDS011;55836;49.858;6.756;2023-08-12T12:31:38;3.07;;;1.93;;
68680;SDS011;55836;49.858;6.756;2023-08-12T12:34:10;3.53;;;2.20;;
68680;SDS011;55836;49.858;6.756;2023-08-12T12:36:45;3.80;;;1.97;;
68680;SDS011;55836;49.858;6.756;2023-08-12T12:39:18;7.63;;;2.80;;
68680;SDS011;55836;49.858;6.756;2023-08-12T12:41:44;4.30;;;2.20;;
68680;SDS011;55836;49.858;6.756;2023-08-12T12:44:10;3.70;;;2.07;;
68680;SDS011;55836;49.858;6.756;2023-08-12T12:46:36;2.57;;;2.00;;
68680;SDS011;55836;49.858;6.756;2023-08-12T12:49:02;2.03;;;1.73;;
68680;SDS011;55836;49.858;6.756;2023-08-12T12:51:28;2.90;;;2.20;;
68680;SDS011;55836;49.858;6.756;2023-08-12T12:53:54;4.33;;;2.23;;
68680;SDS011;55836;49.858;6.756;2023-08-12T12:56:26;2.80;;;2.10;;
68680;SDS011;55836;49.858;6.756;2023-08-12T12:58:58;6.77;;;2.40;;
68680;SDS011;55836;49.858;6.756;2023-08-12T13:01:33;4.13;;;2.20;;
68680;SDS011;55836;49.858;6.756;2023-08-12T13:03:59;3.33;;;2.07;;
68680;SDS011;55836;49.858;6.756;2023-08-12T13:06:25;3.83;;;2.10;;
68680;SDS011;55836;49.858;6.756;2023-08-12T13:08:57;3.87;;;2.20;;
68680;SDS011;55836;49.858;6.756;2023-08-12T13:11:23;3.47;;;2.20;;
68680;SDS011;55836;49.858;6.756;2023-08-12T13:13:49;2.93;;;2.30;;
68680;SDS011;55836;49.858;6.756;2023-08-12T13:16:15;2.60;;;2.40;;
68680;SDS011;55836;49.858;6.756;2023-08-12T13:18:42;3.07;;;2.20;;
68680;SDS011;55836;49.858;6.756;2023-08-12T13:21:08;2.77;;;2.13;;
68680;SDS011;55836;49.858;6.756;2023-08-12T13:23:40;2.77;;;2.00;;
68680;SDS011;55836;49.858;6.756;2023-08-12T13:26:10;3.43;;;2.33;;
68680;SDS011;55836;49.858;6.756;2023-08-12T13:28:42;6.17;;;4.10;;
68680;SDS011;55836;49.858;6.756;2023-08-12T13:31:08;4.07;;;2.13;;
68680;SDS011;55836;49.858;6.756;2023-08-12T13:33:44;3.77;;;2.17;;
68680;SDS011;55836;49.858;6.756;2023-08-12T13:36:16;5.10;;;2.40;;
68680;SDS011;55836;49.858;6.756;2023-08-12T13:38:48;2.40;;;2.10;;
68680;SDS011;55836;49.858;6.756;2023-08-12T13:41:59;5.60;;;2.60;;
68680;SDS011;55836;49.858;6.756;2023-08-12T13:44:10;3.90;;;2.30;;
68680;SDS011;55836;49.858;6.756;2023-08-12T13:46:45;2.77;;;2.30;;
68680;SDS011;55836;49.858;6.756;2023-08-12T13:54:57;3.37;;;2.20;;
68680;SDS011;55836;49.858;6.756;2023-08-12T13:57:23;2.63;;;2.00;;
68680;SDS011;55836;49.858;6.756;2023-08-12T13:59:55;3.23;;;2.77;;
68680;SDS011;55836;49.858;6.756;2023-08-12T14:02:21;3.00;;;2.27;;
68680;SDS011;55836;49.858;6.756;2023-08-12T14:04:50;3.60;;;2.40;;
68680;SDS011;55836;49.858;6.756;2023-08-12T14:09:51;3.20;;;2.40;;
68680;SDS011;55836;49.858;6.756;2023-08-12T14:12:18;4.33;;;2.77;;
68680;SDS011;55836;49.858;6.756;2023-08-12T14:14:44;5.83;;;2.30;;
68680;SDS011;55836;49.858;6.756;2023-08-12T14:17:10;2.73;;;2.50;;
68680;SDS011;55836;49.858;6.756;2023-08-12T14:19:39;5.07;;;2.80;;
68680;SDS011;55836;49.858;6.756;2023-08-12T14:22:06;5.33;;;3.03;;
68680;SDS011;55836;49.858;6.756;2023-08-12T14:24:32;4.17;;;3.03;;
68680;SDS011;55836;49.858;6.756;2023-08-12T14:26:59;4.00;;;2.60;;
68680;SDS011;55836;49.858;6.756;2023-08-12T14:29:25;3.87;;;3.30;;
68680;SDS011;55836;49.858;6.756;2023-08-12T14:31:52;4.43;;;3.40;;
68680;SDS011;55836;49.858;6.756;2023-08-12T14:34:18;4.40;;;3.00;;
68680;SDS011;55836;49.858;6.756;2023-08-12T14:36:44;6.03;;;3.90;;
68680;SDS011;55836;49.858;6.756;2023-08-12T14:39:10;3.83;;;3.37;;
68680;SDS011;55836;49.858;6.756;2023-08-12T14:41:36;5.63;;;2.97;;
68680;SDS011;55836;49.858;6.756;2023-08-12T14:44:02;3.60;;;3.17;;
68680;SDS011;55836;49.858;6.756;2023-08-12T14:46:28;5.33;;;3.50;;
68680;SDS011;55836;49.858;6.756;2023-08-12T14:48:54;3.50;;;3.03;;
68680;SDS011;55836;49.858;6.756;2023-08-12T14:51:21;5.80;;;3.93;;
68680;SDS011;55836;49.858;6.756;2023-08-12T14:53:48;6.67;;;5.97;;
68680;SDS011;55836;49.858;6.756;2023-08-12T14:56:14;7.03;;;3.43;;
68680;SDS011;55836;49.858;6.756;2023-08-12T14:58:41;4.30;;;3.60;;
68680;SDS011;55836;49.858;6.756;2023-08-12T15:01:07;6.63;;;4.93;;
68680;SDS011;55836;49.858;6.756;2023-08-12T15:03:33;4.97;;;3.37;;
68680;SDS011;55836;49.858;6.756;2023-08-12T15:06:02;4.37;;;2.77;;
68680;SDS011;55836;49.858;6.756;2023-08-12T15:08:29;3.50;;;2.60;;
68680;SDS011;55836;49.858;6.756;2023-08-12T15:10:56;5.43;;;3.00;;
68680;SDS011;55836;49.858;6.756;2023-08-12T15:13:22;5.70;;;3.23;;
68680;SDS011;55836;49.858;6.756;2023-08-12T15:15:48;4.90;;;3.10;;
68680;SDS011;55836;49.858;6.756;2023-08-12T15:18:15;4.37;;;2.90;;
68680;SDS011;55836;49.858;6.756;2023-08-12T15:20:41;6.13;;;3.53;;
68680;SDS011;55836;49.858;6.756;2023-08-12T15:23:07;5.57;;;3.50;;
68680;SDS011;55836;49.858;6.756;2023-08-12T15:25:33;3.80;;;3.40;;
68680;SDS011;55836;49.858;6.756;2023-08-12T15:27:59;5.67;;;3.87;;
68680;SDS011;55836;49.858;6.756;2023-08-12T15:30:25;4.80;;;3.63;;
68680;SDS011;55836;49.858;6.756;2023-08-12T15:32:51;4.43;;;3.27;;
68680;SDS011;55836;49.858;6.756;2023-08-12T15:35:17;5.80;;;4.00;;
68680;SDS011;55836;49.858;6.756;2023-08-12T15:37:44;5.07;;;3.70;;
68680;SDS011;55836;49.858;6.756;2023-08-12T15:40:10;5.83;;;3.97;;
68680;SDS011;55836;49.858;6.756;2023-08-12T15:42:38;5.50;;;3.80;;